Wayne, Ohio
Current Conditions -  °F | °C
As of 10:53 PM on Friday 24 Oct 2014 (Local Time) from KTDZ Reporting Station
Broken Clouds Broken Clouds  
Wind Chill: 51°   Ceiling: 4700
Heat Index: 51°   Visibility: 10mi
Dew Point: 44°   Wind: 0mph
Humidity: 77%   Direction: NA
Pressure: 29.99"   Gusts: NA
Location:  41.3°N, 83.47°W
Report Text: KTDZ 250253Z AUTO 00000KT 10SM SCT040 BKN047 11/07 A2999 RMK AO2 SLP158 T01060067 56006 TSNO
Loading
Personal Weather Stations






























Interactive Weather Map
Tropical Storm Tracking
New forecast layout! Learn more

10-Day Weather Forecast

Advertisements
Track Severe Weather on mobile